sensor_id;sensor_type;location;lat;lon;timestamp;temperature;humidity
32334;DHT22;18810;53.040;8.850;2022-08-19T00:01:08;19.10;99.90
32334;DHT22;18810;53.040;8.850;2022-08-19T00:03:34;19.30;99.90
32334;DHT22;18810;53.040;8.850;2022-08-19T00:06:00;19.30;99.90
32334;DHT22;18810;53.040;8.850;2022-08-19T00:08:25;18.90;99.90
32334;DHT22;18810;53.040;8.850;2022-08-19T00:13:17;19.20;99.90
32334;DHT22;18810;53.040;8.850;2022-08-19T00:15:44;18.80;99.90
32334;DHT22;18810;53.040;8.850;2022-08-19T00:18:10;19.00;99.90
32334;DHT22;18810;53.040;8.850;2022-08-19T00:20:36;19.30;99.90
32334;DHT22;18810;53.040;8.850;2022-08-19T00:27:58;19.10;99.90
32334;DHT22;18810;53.040;8.850;2022-08-19T00:30:25;19.30;99.90
32334;DHT22;18810;53.040;8.850;2022-08-19T00:32:53;19.20;99.90
32334;DHT22;18810;53.040;8.850;2022-08-19T00:35:20;19.00;99.90
32334;DHT22;18810;53.040;8.850;2022-08-19T00:37:47;19.00;99.90
32334;DHT22;18810;53.040;8.850;2022-08-19T00:40:14;18.80;99.90
32334;DHT22;18810;53.040;8.850;2022-08-19T00:42:40;18.90;99.90
32334;DHT22;18810;53.040;8.850;2022-08-19T00:45:18;18.80;99.90
32334;DHT22;18810;53.040;8.850;2022-08-19T00:47:45;18.80;99.90
32334;DHT22;18810;53.040;8.850;2022-08-19T00:50:13;18.90;99.90
32334;DHT22;18810;53.040;8.850;2022-08-19T00:52:46;18.90;99.90
32334;DHT22;18810;53.040;8.850;2022-08-19T00:55:20;18.90;99.90
32334;DHT22;18810;53.040;8.850;2022-08-19T00:57:55;18.90;99.90
32334;DHT22;18810;53.040;8.850;2022-08-19T01:00:23;19.00;99.90
32334;DHT22;18810;53.040;8.850;2022-08-19T01:02:50;19.20;99.90
32334;DHT22;18810;53.040;8.850;2022-08-19T01:05:20;18.80;99.90
32334;DHT22;18810;53.040;8.850;2022-08-19T01:07:47;19.20;99.90
32334;DHT22;18810;53.040;8.850;2022-08-19T01:10:16;18.80;99.90
32334;DHT22;18810;53.040;8.850;2022-08-19T01:12:45;18.90;99.90
32334;DHT22;18810;53.040;8.850;2022-08-19T01:15:12;19.00;99.90
32334;DHT22;18810;53.040;8.850;2022-08-19T01:17:40;18.90;99.90
32334;DHT22;18810;53.040;8.850;2022-08-19T01:20:10;19.10;99.90
32334;DHT22;18810;53.040;8.850;2022-08-19T01:27:38;18.90;99.90
32334;DHT22;18810;53.040;8.850;2022-08-19T01:30:05;19.00;99.90
32334;DHT22;18810;53.040;8.850;2022-08-19T01:32:32;19.00;99.90
32334;DHT22;18810;53.040;8.850;2022-08-19T01:34:57;18.50;99.90
32334;DHT22;18810;53.040;8.850;2022-08-19T01:39:50;18.90;99.90
32334;DHT22;18810;53.040;8.850;2022-08-19T01:47:08;18.80;99.90
32334;DHT22;18810;53.040;8.850;2022-08-19T01:49:36;18.60;99.90
32334;DHT22;18810;53.040;8.850;2022-08-19T01:52:03;18.80;99.90
32334;DHT22;18810;53.040;8.850;2022-08-19T01:54:29;18.70;99.90
32334;DHT22;18810;53.040;8.850;2022-08-19T01:57:03;18.70;99.90
32334;DHT22;18810;53.040;8.850;2022-08-19T02:04:22;18.90;99.90
32334;DHT22;18810;53.040;8.850;2022-08-19T02:06:48;19.00;99.90
32334;DHT22;18810;53.040;8.850;2022-08-19T02:09:14;18.80;99.90
32334;DHT22;18810;53.040;8.850;2022-08-19T02:11:41;18.70;99.90
32334;DHT22;18810;53.040;8.850;2022-08-19T02:14:07;18.40;99.90
32334;DHT22;18810;53.040;8.850;2022-08-19T02:16:35;18.50;99.90
32334;DHT22;18810;53.040;8.850;2022-08-19T02:19:01;18.50;99.90
32334;DHT22;18810;53.040;8.850;2022-08-19T02:21:28;18.70;99.90
32334;DHT22;18810;53.040;8.850;2022-08-19T02:23:55;18.60;99.90
32334;DHT22;18810;53.040;8.850;2022-08-19T02:26:21;18.60;99.90
32334;DHT22;18810;53.040;8.850;2022-08-19T02:28:47;18.50;99.90
32334;DHT22;18810;53.040;8.850;2022-08-19T02:31:20;18.80;99.90
32334;DHT22;18810;53.040;8.850;2022-08-19T02:33:48;18.60;99.90
32334;DHT22;18810;53.040;8.850;2022-08-19T02:36:15;18.70;99.90
32334;DHT22;18810;53.040;8.850;2022-08-19T02:38:42;18.50;99.90
32334;DHT22;18810;53.040;8.850;2022-08-19T02:41:14;18.40;99.90
32334;DHT22;18810;53.040;8.850;2022-08-19T02:43:40;18.80;99.90
32334;DHT22;18810;53.040;8.850;2022-08-19T02:46:24;18.70;99.90
32334;DHT22;18810;53.040;8.850;2022-08-19T02:48:53;18.60;99.90
32334;DHT22;18810;53.040;8.850;2022-08-19T02:51:32;18.60;99.90
32334;DHT22;18810;53.040;8.850;2022-08-19T02:53:58;18.70;99.90
32334;DHT22;18810;53.040;8.850;2022-08-19T02:56:25;18.30;99.90
32334;DHT22;18810;53.040;8.850;2022-08-19T02:58:54;18.70;99.90
32334;DHT22;18810;53.040;8.850;2022-08-19T03:01:31;18.60;99.90
32334;DHT22;18810;53.040;8.850;2022-08-19T03:04:02;18.60;99.90
32334;DHT22;18810;53.040;8.850;2022-08-19T03:06:28;18.90;99.90
32334;DHT22;18810;53.040;8.850;2022-08-19T03:08:55;18.80;99.90
32334;DHT22;18810;53.040;8.850;2022-08-19T03:11:25;18.40;99.90
32334;DHT22;18810;53.040;8.850;2022-08-19T03:13:52;18.50;99.90
32334;DHT22;18810;53.040;8.850;2022-08-19T03:16:20;18.50;99.90
32334;DHT22;18810;53.040;8.850;2022-08-19T03:18:46;18.80;99.90
32334;DHT22;18810;53.040;8.850;2022-08-19T03:21:22;18.90;99.90
32334;DHT22;18810;53.040;8.850;2022-08-19T03:23:49;18.50;99.90
32334;DHT22;18810;53.040;8.850;2022-08-19T03:26:15;18.80;99.90
32334;DHT22;18810;53.040;8.850;2022-08-19T03:28:43;18.80;99.90
32334;DHT22;18810;53.040;8.850;2022-08-19T03:31:13;18.50;99.90
32334;DHT22;18810;53.040;8.850;2022-08-19T03:33:40;18.80;99.90
32334;DHT22;18810;53.040;8.850;2022-08-19T03:36:07;18.60;99.90
32334;DHT22;18810;53.040;8.850;2022-08-19T03:38:38;18.70;99.90
32334;DHT22;18810;53.040;8.850;2022-08-19T03:41:08;18.50;99.90
32334;DHT22;18810;53.040;8.850;2022-08-19T03:43:36;18.20;99.90
32334;DHT22;18810;53.040;8.850;2022-08-19T03:46:07;18.50;99.90
32334;DHT22;18810;53.040;8.850;2022-08-19T03:48:34;18.10;99.90
32334;DHT22;18810;53.040;8.850;2022-08-19T03:53:28;18.50;99.90
32334;DHT22;18810;53.040;8.850;2022-08-19T03:55:55;18.00;99.90
32334;DHT22;18810;53.040;8.850;2022-08-19T03:58:22;18.20;99.90
32334;DHT22;18810;53.040;8.850;2022-08-19T04:00:48;18.40;99.90
32334;DHT22;18810;53.040;8.850;2022-08-19T04:03:14;18.20;99.90
32334;DHT22;18810;53.040;8.850;2022-08-19T04:05:40;18.20;99.90
32334;DHT22;18810;53.040;8.850;2022-08-19T04:08:06;17.70;99.90
32334;DHT22;18810;53.040;8.850;2022-08-19T04:10:36;17.80;99.90
32334;DHT22;18810;53.040;8.850;2022-08-19T04:13:05;17.70;99.90
32334;DHT22;18810;53.040;8.850;2022-08-19T04:15:32;17.60;99.90
32334;DHT22;18810;53.040;8.850;2022-08-19T04:18:04;18.00;99.90
32334;DHT22;18810;53.040;8.850;2022-08-19T04:20:38;18.00;99.90
32334;DHT22;18810;53.040;8.850;2022-08-19T04:25:35;17.70;99.90
32334;DHT22;18810;53.040;8.850;2022-08-19T04:30:27;18.00;99.90
32334;DHT22;18810;53.040;8.850;2022-08-19T04:32:53;17.90;99.90
32334;DHT22;18810;53.040;8.850;2022-08-19T04:35:18;17.90;99.90
32334;DHT22;18810;53.040;8.850;2022-08-19T04:37:44;17.40;99.90
32334;DHT22;18810;53.040;8.850;2022-08-19T04:42:54;17.60;99.90
32334;DHT22;18810;53.040;8.850;2022-08-19T04:45:20;17.50;99.90
32334;DHT22;18810;53.040;8.850;2022-08-19T04:52:39;17.50;99.90
32334;DHT22;18810;53.040;8.850;2022-08-19T04:55:10;17.30;99.90
32334;DHT22;18810;53.040;8.850;2022-08-19T04:57:36;17.50;99.90
32334;DHT22;18810;53.040;8.850;2022-08-19T05:00:05;17.50;99.90
32334;DHT22;18810;53.040;8.850;2022-08-19T05:02:31;17.70;99.90
32334;DHT22;18810;53.040;8.850;2022-08-19T05:04:57;17.30;99.90
32334;DHT22;18810;53.040;8.850;2022-08-19T05:07:25;17.40;99.90
32334;DHT22;18810;53.040;8.850;2022-08-19T05:09:51;17.40;99.90
32334;DHT22;18810;53.040;8.850;2022-08-19T05:12:17;17.30;99.90
32334;DHT22;18810;53.040;8.850;2022-08-19T05:17:11;17.30;99.90
32334;DHT22;18810;53.040;8.850;2022-08-19T05:22:21;17.00;99.90
32334;DHT22;18810;53.040;8.850;2022-08-19T05:25:03;17.00;99.90
32334;DHT22;18810;53.040;8.850;2022-08-19T05:27:28;17.10;99.90
32334;DHT22;18810;53.040;8.850;2022-08-19T05:29:54;17.60;99.90
32334;DHT22;18810;53.040;8.850;2022-08-19T05:32:20;17.60;99.90
32334;DHT22;18810;53.040;8.850;2022-08-19T05:34:47;17.40;99.90
32334;DHT22;18810;53.040;8.850;2022-08-19T05:37:12;17.80;99.90
32334;DHT22;18810;53.040;8.850;2022-08-19T05:39:38;17.50;99.90
32334;DHT22;18810;53.040;8.850;2022-08-19T05:42:07;17.60;99.90
32334;DHT22;18810;53.040;8.850;2022-08-19T05:44:36;17.90;99.90
32334;DHT22;18810;53.040;8.850;2022-08-19T05:47:04;17.50;99.90
32334;DHT22;18810;53.040;8.850;2022-08-19T05:49:31;17.40;99.90
32334;DHT22;18810;53.040;8.850;2022-08-19T05:51:57;18.00;99.90
32334;DHT22;18810;53.040;8.850;2022-08-19T05:54:25;18.10;99.90
32334;DHT22;18810;53.040;8.850;2022-08-19T05:56:51;18.10;99.90
32334;DHT22;18810;53.040;8.850;2022-08-19T06:01:46;18.80;99.90
32334;DHT22;18810;53.040;8.850;2022-08-19T06:04:12;19.60;99.90
32334;DHT22;18810;53.040;8.850;2022-08-19T06:06:45;20.20;99.90
32334;DHT22;18810;53.040;8.850;2022-08-19T06:09:11;20.80;99.90
32334;DHT22;18810;53.040;8.850;2022-08-19T06:11:43;21.60;99.90
32334;DHT22;18810;53.040;8.850;2022-08-19T06:14:19;22.30;99.90
32334;DHT22;18810;53.040;8.850;2022-08-19T06:16:46;22.70;99.90
32334;DHT22;18810;53.040;8.850;2022-08-19T06:19:15;22.90;99.90
32334;DHT22;18810;53.040;8.850;2022-08-19T06:21:43;22.60;99.90
32334;DHT22;18810;53.040;8.850;2022-08-19T06:24:12;22.20;99.90
32334;DHT22;18810;53.040;8.850;2022-08-19T06:26:40;22.10;99.90
32334;DHT22;18810;53.040;8.850;2022-08-19T06:29:08;21.50;99.90
32334;DHT22;18810;53.040;8.850;2022-08-19T06:31:35;21.00;99.90
32334;DHT22;18810;53.040;8.850;2022-08-19T06:34:03;20.80;99.90
32334;DHT22;18810;53.040;8.850;2022-08-19T06:36:38;20.30;99.90
32334;DHT22;18810;53.040;8.850;2022-08-19T06:39:24;20.20;99.90
32334;DHT22;18810;53.040;8.850;2022-08-19T06:41:53;20.40;99.90
32334;DHT22;18810;53.040;8.850;2022-08-19T06:44:21;20.60;99.90
32334;DHT22;18810;53.040;8.850;2022-08-19T06:46:47;20.90;99.90
32334;DHT22;18810;53.040;8.850;2022-08-19T06:49:16;21.30;99.90
32334;DHT22;18810;53.040;8.850;2022-08-19T06:51:42;21.60;99.90
32334;DHT22;18810;53.040;8.850;2022-08-19T06:54:09;21.40;99.90
32334;DHT22;18810;53.040;8.850;2022-08-19T06:56:35;21.50;99.90
32334;DHT22;18810;53.040;8.850;2022-08-19T06:59:12;21.10;99.90
32334;DHT22;18810;53.040;8.850;2022-08-19T07:01:44;20.70;99.90
32334;DHT22;18810;53.040;8.850;2022-08-19T07:04:12;21.00;99.90
32334;DHT22;18810;53.040;8.850;2022-08-19T07:06:38;21.10;99.90
32334;DHT22;18810;53.040;8.850;2022-08-19T07:09:05;20.90;99.90
32334;DHT22;18810;53.040;8.850;2022-08-19T07:11:32;20.70;99.90
32334;DHT22;18810;53.040;8.850;2022-08-19T07:13:58;20.80;99.90
32334;DHT22;18810;53.040;8.850;2022-08-19T07:16:24;20.80;99.90
32334;DHT22;18810;53.040;8.850;2022-08-19T07:18:50;21.10;99.90
32334;DHT22;18810;53.040;8.850;2022-08-19T07:21:22;21.30;99.90
32334;DHT22;18810;53.040;8.850;2022-08-19T07:23:49;22.10;99.90
32334;DHT22;18810;53.040;8.850;2022-08-19T07:26:19;22.00;99.90
32334;DHT22;18810;53.040;8.850;2022-08-19T07:28:47;22.10;99.90
32334;DHT22;18810;53.040;8.850;2022-08-19T07:31:16;22.10;99.90
32334;DHT22;18810;53.040;8.850;2022-08-19T07:36:12;22.60;99.90
32334;DHT22;18810;53.040;8.850;2022-08-19T07:38:40;23.10;99.90
32334;DHT22;18810;53.040;8.850;2022-08-19T07:41:10;23.50;99.90
32334;DHT22;18810;53.040;8.850;2022-08-19T07:43:36;23.90;99.90
32334;DHT22;18810;53.040;8.850;2022-08-19T07:46:01;24.20;99.90
32334;DHT22;18810;53.040;8.850;2022-08-19T07:48:27;24.30;99.90
32334;DHT22;18810;53.040;8.850;2022-08-19T07:50:56;24.00;99.90
32334;DHT22;18810;53.040;8.850;2022-08-19T07:53:23;24.10;99.90
32334;DHT22;18810;53.040;8.850;2022-08-19T07:55:49;24.30;99.90
32334;DHT22;18810;53.040;8.850;2022-08-19T07:58:21;24.20;99.90
32334;DHT22;18810;53.040;8.850;2022-08-19T08:00:49;24.20;99.90
32334;DHT22;18810;53.040;8.850;2022-08-19T08:03:17;23.90;99.90
32334;DHT22;18810;53.040;8.850;2022-08-19T08:05:44;24.00;99.90
32334;DHT22;18810;53.040;8.850;2022-08-19T08:08:28;24.30;99.90
32334;DHT22;18810;53.040;8.850;2022-08-19T08:11:14;24.60;99.90
32334;DHT22;18810;53.040;8.850;2022-08-19T08:13:40;25.40;99.90
32334;DHT22;18810;53.040;8.850;2022-08-19T08:16:07;25.90;99.90
32334;DHT22;18810;53.040;8.850;2022-08-19T08:18:33;26.50;99.60
32334;DHT22;18810;53.040;8.850;2022-08-19T08:20:59;27.20;97.20
32334;DHT22;18810;53.040;8.850;2022-08-19T08:23:25;27.50;96.60
32334;DHT22;18810;53.040;8.850;2022-08-19T08:25:53;27.90;95.90
32334;DHT22;18810;53.040;8.850;2022-08-19T08:28:20;27.80;94.80
32334;DHT22;18810;53.040;8.850;2022-08-19T08:30:47;28.00;94.60
32334;DHT22;18810;53.040;8.850;2022-08-19T08:33:21;28.30;94.00
32334;DHT22;18810;53.040;8.850;2022-08-19T08:40:45;28.10;93.20
32334;DHT22;18810;53.040;8.850;2022-08-19T08:45:53;27.20;94.60
32334;DHT22;18810;53.040;8.850;2022-08-19T08:51:36;27.60;94.20
32334;DHT22;18810;53.040;8.850;2022-08-19T08:54:05;28.10;92.50
32334;DHT22;18810;53.040;8.850;2022-08-19T08:56:32;27.70;92.70
32334;DHT22;18810;53.040;8.850;2022-08-19T08:59:12;27.40;93.20
32334;DHT22;18810;53.040;8.850;2022-08-19T09:01:40;27.40;93.30
32334;DHT22;18810;53.040;8.850;2022-08-19T09:04:07;27.30;93.70
32334;DHT22;18810;53.040;8.850;2022-08-19T09:06:42;27.50;93.70
32334;DHT22;18810;53.040;8.850;2022-08-19T09:09:20;27.50;93.60
32334;DHT22;18810;53.040;8.850;2022-08-19T09:14:51;27.50;93.70
32334;DHT22;18810;53.040;8.850;2022-08-19T09:17:25;28.00;92.70
32334;DHT22;18810;53.040;8.850;2022-08-19T09:22:41;29.20;90.30
32334;DHT22;18810;53.040;8.850;2022-08-19T09:25:13;29.80;88.50
32334;DHT22;18810;53.040;8.850;2022-08-19T09:27:41;29.70;89.30
32334;DHT22;18810;53.040;8.850;2022-08-19T09:30:09;29.50;89.60
32334;DHT22;18810;53.040;8.850;2022-08-19T09:42:20;30.30;86.40
32334;DHT22;18810;53.040;8.850;2022-08-19T09:44:46;29.60;88.50
32334;DHT22;18810;53.040;8.850;2022-08-19T09:47:13;29.80;87.90
32334;DHT22;18810;53.040;8.850;2022-08-19T09:49:39;29.90;88.30
32334;DHT22;18810;53.040;8.850;2022-08-19T09:52:09;30.30;86.10
32334;DHT22;18810;53.040;8.850;2022-08-19T09:54:36;30.40;84.90
32334;DHT22;18810;53.040;8.850;2022-08-19T09:57:02;30.00;85.70
32334;DHT22;18810;53.040;8.850;2022-08-19T09:59:28;29.90;86.10
32334;DHT22;18810;53.040;8.850;2022-08-19T10:01:54;29.90;86.70
32334;DHT22;18810;53.040;8.850;2022-08-19T10:04:20;30.70;84.00
32334;DHT22;18810;53.040;8.850;2022-08-19T10:07:06;30.80;83.00
32334;DHT22;18810;53.040;8.850;2022-08-19T10:11:57;31.10;83.10
32334;DHT22;18810;53.040;8.850;2022-08-19T10:19:19;31.60;78.20
32334;DHT22;18810;53.040;8.850;2022-08-19T10:21:46;31.30;79.20
32334;DHT22;18810;53.040;8.850;2022-08-19T10:24:12;31.40;80.20
32334;DHT22;18810;53.040;8.850;2022-08-19T10:26:39;31.20;77.40
32334;DHT22;18810;53.040;8.850;2022-08-19T10:34:03;31.30;75.20
32334;DHT22;18810;53.040;8.850;2022-08-19T10:36:34;32.00;73.00
32334;DHT22;18810;53.040;8.850;2022-08-19T10:39:06;31.70;72.40
32334;DHT22;18810;53.040;8.850;2022-08-19T10:41:36;31.60;75.40
32334;DHT22;18810;53.040;8.850;2022-08-19T10:44:05;31.50;76.10
32334;DHT22;18810;53.040;8.850;2022-08-19T10:46:33;32.00;75.30
32334;DHT22;18810;53.040;8.850;2022-08-19T10:49:04;32.00;73.30
32334;DHT22;18810;53.040;8.850;2022-08-19T10:51:31;32.10;72.20
32334;DHT22;18810;53.040;8.850;2022-08-19T10:54:16;32.10;72.90
32334;DHT22;18810;53.040;8.850;2022-08-19T10:56:42;32.40;70.80
32334;DHT22;18810;53.040;8.850;2022-08-19T10:59:24;33.20;70.20
32334;DHT22;18810;53.040;8.850;2022-08-19T11:01:58;34.10;67.50
32334;DHT22;18810;53.040;8.850;2022-08-19T11:09:19;34.00;64.40
32334;DHT22;18810;53.040;8.850;2022-08-19T11:14:15;33.90;63.70
32334;DHT22;18810;53.040;8.850;2022-08-19T11:16:41;34.00;64.10
32334;DHT22;18810;53.040;8.850;2022-08-19T11:19:09;34.20;62.40
32334;DHT22;18810;53.040;8.850;2022-08-19T11:21:41;34.10;63.20
32334;DHT22;18810;53.040;8.850;2022-08-19T11:24:10;34.20;64.80
32334;DHT22;18810;53.040;8.850;2022-08-19T11:26:37;34.30;63.80
32334;DHT22;18810;53.040;8.850;2022-08-19T11:29:04;34.50;64.30
32334;DHT22;18810;53.040;8.850;2022-08-19T11:31:33;34.50;61.70
32334;DHT22;18810;53.040;8.850;2022-08-19T11:34:02;33.90;64.50
32334;DHT22;18810;53.040;8.850;2022-08-19T11:36:29;34.10;65.60
32334;DHT22;18810;53.040;8.850;2022-08-19T11:38:55;34.00;64.40
32334;DHT22;18810;53.040;8.850;2022-08-19T11:41:22;34.10;63.80
32334;DHT22;18810;53.040;8.850;2022-08-19T11:43:49;34.30;64.60
32334;DHT22;18810;53.040;8.850;2022-08-19T11:46:16;33.90;62.50
32334;DHT22;18810;53.040;8.850;2022-08-19T11:51:11;33.80;59.30
32334;DHT22;18810;53.040;8.850;2022-08-19T11:53:38;33.70;59.90
32334;DHT22;18810;53.040;8.850;2022-08-19T11:56:05;34.00;59.70
32334;DHT22;18810;53.040;8.850;2022-08-19T12:00:57;34.20;59.50
32334;DHT22;18810;53.040;8.850;2022-08-19T12:03:23;33.80;59.80
32334;DHT22;18810;53.040;8.850;2022-08-19T12:05:49;33.70;58.20
32334;DHT22;18810;53.040;8.850;2022-08-19T12:08:16;33.70;58.60
32334;DHT22;18810;53.040;8.850;2022-08-19T12:13:09;34.50;57.40
32334;DHT22;18810;53.040;8.850;2022-08-19T12:15:39;34.40;57.90
32334;DHT22;18810;53.040;8.850;2022-08-19T12:18:09;34.20;58.20
32334;DHT22;18810;53.040;8.850;2022-08-19T12:20:36;34.40;58.20
32334;DHT22;18810;53.040;8.850;2022-08-19T12:23:03;34.30;58.80
32334;DHT22;18810;53.040;8.850;2022-08-19T12:25:29;34.20;58.70
32334;DHT22;18810;53.040;8.850;2022-08-19T12:37:40;33.60;57.70
32334;DHT22;18810;53.040;8.850;2022-08-19T12:40:08;33.70;57.80
32334;DHT22;18810;53.040;8.850;2022-08-19T12:42:34;33.60;58.20
32334;DHT22;18810;53.040;8.850;2022-08-19T12:45:00;33.30;58.90
32334;DHT22;18810;53.040;8.850;2022-08-19T12:52:18;33.60;57.30
32334;DHT22;18810;53.040;8.850;2022-08-19T12:54:46;34.00;58.20
32334;DHT22;18810;53.040;8.850;2022-08-19T12:59:38;34.20;56.90
32334;DHT22;18810;53.040;8.850;2022-08-19T13:02:06;34.50;57.60
32334;DHT22;18810;53.040;8.850;2022-08-19T13:04:33;34.80;56.90
32334;DHT22;18810;53.040;8.850;2022-08-19T13:07:02;35.30;54.90
32334;DHT22;18810;53.040;8.850;2022-08-19T13:11:54;35.70;55.10
32334;DHT22;18810;53.040;8.850;2022-08-19T13:14:19;35.90;54.70
32334;DHT22;18810;53.040;8.850;2022-08-19T13:26:31;34.70;54.10
32334;DHT22;18810;53.040;8.850;2022-08-19T13:28:57;35.50;53.60
32334;DHT22;18810;53.040;8.850;2022-08-19T13:31:41;35.90;52.00
32334;DHT22;18810;53.040;8.850;2022-08-19T13:34:31;35.90;50.10
32334;DHT22;18810;53.040;8.850;2022-08-19T13:36:59;35.30;49.90
32334;DHT22;18810;53.040;8.850;2022-08-19T13:44:18;35.50;50.00
32334;DHT22;18810;53.040;8.850;2022-08-19T13:46:48;35.40;50.70
32334;DHT22;18810;53.040;8.850;2022-08-19T13:51:42;35.60;48.70
32334;DHT22;18810;53.040;8.850;2022-08-19T13:54:09;35.80;48.60
32334;DHT22;18810;53.040;8.850;2022-08-19T13:56:41;36.10;47.90
32334;DHT22;18810;53.040;8.850;2022-08-19T13:59:07;36.30;47.80
32334;DHT22;18810;53.040;8.850;2022-08-19T14:16:12;35.50;51.80
32334;DHT22;18810;53.040;8.850;2022-08-19T14:21:05;35.10;52.40
32334;DHT22;18810;53.040;8.850;2022-08-19T14:23:32;35.80;50.90
32334;DHT22;18810;53.040;8.850;2022-08-19T14:26:09;35.50;51.90
32334;DHT22;18810;53.040;8.850;2022-08-19T14:43:14;35.80;52.20
32334;DHT22;18810;53.040;8.850;2022-08-19T14:45:40;35.80;52.10
32334;DHT22;18810;53.040;8.850;2022-08-19T14:48:06;35.40;53.20
32334;DHT22;18810;53.040;8.850;2022-08-19T14:53:08;35.70;53.30
32334;DHT22;18810;53.040;8.850;2022-08-19T14:55:34;36.00;52.60
32334;DHT22;18810;53.040;8.850;2022-08-19T15:07:48;36.10;52.90
32334;DHT22;18810;53.040;8.850;2022-08-19T15:10:14;35.80;53.40
32334;DHT22;18810;53.040;8.850;2022-08-19T15:15:12;36.10;52.50
32334;DHT22;18810;53.040;8.850;2022-08-19T15:17:39;35.80;52.20
32334;DHT22;18810;53.040;8.850;2022-08-19T15:20:06;35.50;52.20
32334;DHT22;18810;53.040;8.850;2022-08-19T15:22:33;35.20;53.20
32334;DHT22;18810;53.040;8.850;2022-08-19T15:32:18;35.90;52.50
32334;DHT22;18810;53.040;8.850;2022-08-19T15:37:14;35.70;51.80
32334;DHT22;18810;53.040;8.850;2022-08-19T15:42:05;35.30;52.40
32334;DHT22;18810;53.040;8.850;2022-08-19T15:49:24;35.10;53.00
32334;DHT22;18810;53.040;8.850;2022-08-19T15:54:20;34.80;53.40
32334;DHT22;18810;53.040;8.850;2022-08-19T15:56:47;34.70;53.50
32334;DHT22;18810;53.040;8.850;2022-08-19T15:59:33;34.80;53.50
32334;DHT22;18810;53.040;8.850;2022-08-19T16:02:19;35.30;52.60
32334;DHT22;18810;53.040;8.850;2022-08-19T16:05:07;35.40;52.30
32334;DHT22;18810;53.040;8.850;2022-08-19T16:07:51;35.10;53.50
32334;DHT22;18810;53.040;8.850;2022-08-19T16:10:17;35.20;54.10
32334;DHT22;18810;53.040;8.850;2022-08-19T16:12:43;35.80;54.30
32334;DHT22;18810;53.040;8.850;2022-08-19T16:15:10;35.60;54.80
32334;DHT22;18810;53.040;8.850;2022-08-19T16:20:05;35.70;54.10
32334;DHT22;18810;53.040;8.850;2022-08-19T16:22:34;35.20;54.80
32334;DHT22;18810;53.040;8.850;2022-08-19T16:34:45;36.70;53.00
32334;DHT22;18810;53.040;8.850;2022-08-19T16:39:38;36.70;52.90
32334;DHT22;18810;53.040;8.850;2022-08-19T16:42:06;36.80;52.40
32334;DHT22;18810;53.040;8.850;2022-08-19T16:46:58;36.00;53.20
32334;DHT22;18810;53.040;8.850;2022-08-19T16:51:51;36.60;52.10
32334;DHT22;18810;53.040;8.850;2022-08-19T16:54:17;36.10;52.50
32334;DHT22;18810;53.040;8.850;2022-08-19T17:01:36;35.30;54.20
32334;DHT22;18810;53.040;8.850;2022-08-19T17:06:29;34.20;56.00
32334;DHT22;18810;53.040;8.850;2022-08-19T17:08:57;33.50;56.60
32334;DHT22;18810;53.040;8.850;2022-08-19T17:11:25;33.10;57.70
32334;DHT22;18810;53.040;8.850;2022-08-19T17:16:20;32.50;59.00
32334;DHT22;18810;53.040;8.850;2022-08-19T17:21:23;31.80;59.70
32334;DHT22;18810;53.040;8.850;2022-08-19T17:23:51;31.50;60.50
32334;DHT22;18810;53.040;8.850;2022-08-19T17:26:17;31.50;60.40
32334;DHT22;18810;53.040;8.850;2022-08-19T17:36:01;31.40;60.80
32334;DHT22;18810;53.040;8.850;2022-08-19T17:38:29;31.20;61.50
32334;DHT22;18810;53.040;8.850;2022-08-19T17:50:48;30.40;62.10
32334;DHT22;18810;53.040;8.850;2022-08-19T18:03:03;30.20;61.80
32334;DHT22;18810;53.040;8.850;2022-08-19T18:05:34;30.20;62.00
32334;DHT22;18810;53.040;8.850;2022-08-19T18:22:48;29.10;61.60
32334;DHT22;18810;53.040;8.850;2022-08-19T18:25:21;29.10;62.30
32334;DHT22;18810;53.040;8.850;2022-08-19T18:27:49;28.90;62.30
32334;DHT22;18810;53.040;8.850;2022-08-19T18:30:15;28.90;62.10
32334;DHT22;18810;53.040;8.850;2022-08-19T18:32:41;28.90;62.00
32334;DHT22;18810;53.040;8.850;2022-08-19T18:35:11;28.90;62.00
32334;DHT22;18810;53.040;8.850;2022-08-19T18:37:38;28.90;62.00
32334;DHT22;18810;53.040;8.850;2022-08-19T18:40:06;28.70;62.90
32334;DHT22;18810;53.040;8.850;2022-08-19T18:42:50;28.70;63.20
32334;DHT22;18810;53.040;8.850;2022-08-19T18:45:35;28.60;63.30
32334;DHT22;18810;53.040;8.850;2022-08-19T18:48:19;28.40;63.80
32334;DHT22;18810;53.040;8.850;2022-08-19T18:51:03;28.30;63.20
32334;DHT22;18810;53.040;8.850;2022-08-19T18:53:31;28.20;64.20
32334;DHT22;18810;53.040;8.850;2022-08-19T18:55:58;28.20;63.90
32334;DHT22;18810;53.040;8.850;2022-08-19T18:58:25;28.10;63.30
32334;DHT22;18810;53.040;8.850;2022-08-19T19:30:19;27.00;70.90
32334;DHT22;18810;53.040;8.850;2022-08-19T19:32:49;26.90;70.00
32334;DHT22;18810;53.040;8.850;2022-08-19T19:40:09;26.90;70.40
32334;DHT22;18810;53.040;8.850;2022-08-19T19:42:35;26.60;70.40
32334;DHT22;18810;53.040;8.850;2022-08-19T19:45:02;26.30;71.10
32334;DHT22;18810;53.040;8.850;2022-08-19T19:47:28;26.20;70.80
32334;DHT22;18810;53.040;8.850;2022-08-19T19:49:55;26.20;72.10
32334;DHT22;18810;53.040;8.850;2022-08-19T19:54:47;26.40;72.30
32334;DHT22;18810;53.040;8.850;2022-08-19T19:59:40;26.60;72.50
32334;DHT22;18810;53.040;8.850;2022-08-19T20:02:07;26.70;73.50
32334;DHT22;18810;53.040;8.850;2022-08-19T20:06:59;26.20;74.20
32334;DHT22;18810;53.040;8.850;2022-08-19T20:11:53;25.80;75.40
32334;DHT22;18810;53.040;8.850;2022-08-19T20:14:28;25.80;75.90
32334;DHT22;18810;53.040;8.850;2022-08-19T20:16:58;25.80;75.60
32334;DHT22;18810;53.040;8.850;2022-08-19T20:19:29;25.80;76.20
32334;DHT22;18810;53.040;8.850;2022-08-19T20:24:29;25.80;76.40
32334;DHT22;18810;53.040;8.850;2022-08-19T20:26:57;25.80;76.00
32334;DHT22;18810;53.040;8.850;2022-08-19T20:29:24;25.70;77.70
32334;DHT22;18810;53.040;8.850;2022-08-19T20:31:50;25.70;78.30
32334;DHT22;18810;53.040;8.850;2022-08-19T20:34:16;25.40;77.50
32334;DHT22;18810;53.040;8.850;2022-08-19T20:39:08;25.30;78.10
32334;DHT22;18810;53.040;8.850;2022-08-19T20:41:34;25.30;78.10
32334;DHT22;18810;53.040;8.850;2022-08-19T20:44:01;25.20;79.50
32334;DHT22;18810;53.040;8.850;2022-08-19T20:46:29;25.30;79.40
32334;DHT22;18810;53.040;8.850;2022-08-19T20:51:27;25.40;79.40
32334;DHT22;18810;53.040;8.850;2022-08-19T20:53:53;25.50;79.50
32334;DHT22;18810;53.040;8.850;2022-08-19T20:58:45;25.10;79.20
32334;DHT22;18810;53.040;8.850;2022-08-19T21:03:40;25.00;80.20
32334;DHT22;18810;53.040;8.850;2022-08-19T21:06:11;24.90;80.70
32334;DHT22;18810;53.040;8.850;2022-08-19T21:08:37;24.90;81.10
32334;DHT22;18810;53.040;8.850;2022-08-19T21:11:03;24.80;81.60
32334;DHT22;18810;53.040;8.850;2022-08-19T21:13:30;24.70;81.40